sensor_id;sensor_type;location;lat;lon;timestamp;P1;durP1;ratioP1;P2;durP2;ratioP2
47758;SDS011;33520;55.122;35.582;2023-10-19T00:01:18;5.15;;;2.88;;
47758;SDS011;33520;55.122;35.582;2023-10-19T00:03:44;4.65;;;3.42;;
47758;SDS011;33520;55.122;35.582;2023-10-19T00:06:10;5.53;;;3.00;;
47758;SDS011;33520;55.122;35.582;2023-10-19T00:08:39;5.03;;;2.72;;
47758;SDS011;33520;55.122;35.582;2023-10-19T00:11:09;7.13;;;3.15;;
47758;SDS011;33520;55.122;35.582;2023-10-19T00:13:47;6.38;;;3.65;;
47758;SDS011;33520;55.122;35.582;2023-10-19T00:16:19;6.65;;;4.22;;
47758;SDS011;33520;55.122;35.582;2023-10-19T00:18:49;8.20;;;4.63;;
47758;SDS011;33520;55.122;35.582;2023-10-19T00:21:15;6.70;;;3.88;;
47758;SDS011;33520;55.122;35.582;2023-10-19T00:23:52;9.52;;;4.72;;
47758;SDS011;33520;55.122;35.582;2023-10-19T00:26:23;6.80;;;4.05;;
47758;SDS011;33520;55.122;35.582;2023-10-19T00:28:57;7.38;;;3.92;;
47758;SDS011;33520;55.122;35.582;2023-10-19T00:31:24;7.65;;;4.05;;
47758;SDS011;33520;55.122;35.582;2023-10-19T00:33:54;5.90;;;3.45;;
47758;SDS011;33520;55.122;35.582;2023-10-19T00:36:21;4.65;;;3.05;;
47758;SDS011;33520;55.122;35.582;2023-10-19T00:38:48;5.68;;;3.78;;
47758;SDS011;33520;55.122;35.582;2023-10-19T00:41:26;8.38;;;4.43;;
47758;SDS011;33520;55.122;35.582;2023-10-19T00:43:56;7.63;;;3.83;;
47758;SDS011;33520;55.122;35.582;2023-10-19T00:46:26;5.75;;;3.40;;
47758;SDS011;33520;55.122;35.582;2023-10-19T00:48:59;7.40;;;3.78;;
47758;SDS011;33520;55.122;35.582;2023-10-19T00:51:29;6.60;;;3.90;;
47758;SDS011;33520;55.122;35.582;2023-10-19T00:54:14;6.32;;;3.72;;
47758;SDS011;33520;55.122;35.582;2023-10-19T00:56:47;6.97;;;3.43;;
47758;SDS011;33520;55.122;35.582;2023-10-19T00:59:14;6.68;;;3.28;;
47758;SDS011;33520;55.122;35.582;2023-10-19T01:01:46;5.93;;;3.72;;
47758;SDS011;33520;55.122;35.582;2023-10-19T01:04:15;5.70;;;3.38;;
47758;SDS011;33520;55.122;35.582;2023-10-19T01:06:46;7.00;;;3.78;;
47758;SDS011;33520;55.122;35.582;2023-10-19T01:09:34;6.75;;;4.05;;
47758;SDS011;33520;55.122;35.582;2023-10-19T01:12:02;6.80;;;3.53;;
47758;SDS011;33520;55.122;35.582;2023-10-19T01:17:34;4.63;;;3.40;;
47758;SDS011;33520;55.122;35.582;2023-10-19T01:20:07;6.38;;;3.92;;
47758;SDS011;33520;55.122;35.582;2023-10-19T01:23:02;7.50;;;3.53;;
47758;SDS011;33520;55.122;35.582;2023-10-19T01:28:29;7.30;;;3.65;;
47758;SDS011;33520;55.122;35.582;2023-10-19T01:31:18;5.95;;;3.70;;
47758;SDS011;33520;55.122;35.582;2023-10-19T01:33:48;8.43;;;4.22;;
47758;SDS011;33520;55.122;35.582;2023-10-19T01:36:16;5.57;;;3.80;;
47758;SDS011;33520;55.122;35.582;2023-10-19T01:38:52;6.97;;;4.18;;
47758;SDS011;33520;55.122;35.582;2023-10-19T01:41:26;7.47;;;3.42;;
47758;SDS011;33520;55.122;35.582;2023-10-19T01:43:53;7.05;;;3.65;;
47758;SDS011;33520;55.122;35.582;2023-10-19T01:46:21;7.05;;;3.35;;
47758;SDS011;33520;55.122;35.582;2023-10-19T01:48:51;9.55;;;3.90;;
47758;SDS011;33520;55.122;35.582;2023-10-19T01:51:22;6.90;;;4.13;;
47758;SDS011;33520;55.122;35.582;2023-10-19T01:53:50;7.47;;;3.28;;
47758;SDS011;33520;55.122;35.582;2023-10-19T01:56:17;6.13;;;3.33;;
47758;SDS011;33520;55.122;35.582;2023-10-19T01:58:45;8.13;;;3.40;;
47758;SDS011;33520;55.122;35.582;2023-10-19T02:01:13;5.85;;;2.88;;
47758;SDS011;33520;55.122;35.582;2023-10-19T02:03:47;4.93;;;2.88;;
47758;SDS011;33520;55.122;35.582;2023-10-19T02:06:19;5.13;;;2.95;;
47758;SDS011;33520;55.122;35.582;2023-10-19T02:08:49;5.35;;;2.95;;
47758;SDS011;33520;55.122;35.582;2023-10-19T02:11:20;3.83;;;2.53;;
47758;SDS011;33520;55.122;35.582;2023-10-19T02:13:48;3.63;;;2.60;;
47758;SDS011;33520;55.122;35.582;2023-10-19T02:16:18;3.55;;;2.42;;
47758;SDS011;33520;55.122;35.582;2023-10-19T02:18:51;3.63;;;2.60;;
47758;SDS011;33520;55.122;35.582;2023-10-19T02:21:18;5.18;;;2.38;;
47758;SDS011;33520;55.122;35.582;2023-10-19T02:23:48;4.03;;;2.53;;
47758;SDS011;33520;55.122;35.582;2023-10-19T02:26:19;4.78;;;1.95;;
47758;SDS011;33520;55.122;35.582;2023-10-19T02:28:46;3.95;;;2.85;;
47758;SDS011;33520;55.122;35.582;2023-10-19T02:31:15;3.38;;;2.08;;
47758;SDS011;33520;55.122;35.582;2023-10-19T02:33:48;4.97;;;2.33;;
47758;SDS011;33520;55.122;35.582;2023-10-19T02:36:27;2.85;;;1.85;;
47758;SDS011;33520;55.122;35.582;2023-10-19T02:38:58;3.83;;;2.45;;
47758;SDS011;33520;55.122;35.582;2023-10-19T02:41:26;4.40;;;2.28;;
47758;SDS011;33520;55.122;35.582;2023-10-19T02:43:54;5.80;;;2.25;;
47758;SDS011;33520;55.122;35.582;2023-10-19T02:46:28;2.83;;;2.22;;
47758;SDS011;33520;55.122;35.582;2023-10-19T02:51:21;4.45;;;2.15;;
47758;SDS011;33520;55.122;35.582;2023-10-19T02:53:47;3.75;;;2.33;;
47758;SDS011;33520;55.122;35.582;2023-10-19T02:56:14;6.47;;;2.78;;
47758;SDS011;33520;55.122;35.582;2023-10-19T02:58:43;8.77;;;2.80;;
47758;SDS011;33520;55.122;35.582;2023-10-19T03:01:15;5.28;;;2.60;;
47758;SDS011;33520;55.122;35.582;2023-10-19T03:03:50;4.55;;;2.53;;
47758;SDS011;33520;55.122;35.582;2023-10-19T03:06:20;8.90;;;3.45;;
47758;SDS011;33520;55.122;35.582;2023-10-19T03:08:47;5.82;;;3.17;;
47758;SDS011;33520;55.122;35.582;2023-10-19T03:11:18;6.10;;;3.38;;
47758;SDS011;33520;55.122;35.582;2023-10-19T03:13:45;6.03;;;3.03;;
47758;SDS011;33520;55.122;35.582;2023-10-19T03:16:17;8.55;;;3.83;;
47758;SDS011;33520;55.122;35.582;2023-10-19T03:18:45;6.63;;;3.75;;
47758;SDS011;33520;55.122;35.582;2023-10-19T03:21:11;6.05;;;3.03;;
47758;SDS011;33520;55.122;35.582;2023-10-19T03:23:38;6.78;;;3.45;;
47758;SDS011;33520;55.122;35.582;2023-10-19T03:26:06;6.43;;;2.90;;
47758;SDS011;33520;55.122;35.582;2023-10-19T03:28:51;7.45;;;3.13;;
47758;SDS011;33520;55.122;35.582;2023-10-19T03:31:22;4.63;;;3.13;;
47758;SDS011;33520;55.122;35.582;2023-10-19T03:33:53;5.03;;;2.80;;
47758;SDS011;33520;55.122;35.582;2023-10-19T03:36:25;3.33;;;2.20;;
47758;SDS011;33520;55.122;35.582;2023-10-19T03:38:52;5.47;;;2.70;;
47758;SDS011;33520;55.122;35.582;2023-10-19T03:41:19;4.78;;;2.22;;
47758;SDS011;33520;55.122;35.582;2023-10-19T03:43:55;3.15;;;2.30;;
47758;SDS011;33520;55.122;35.582;2023-10-19T03:46:23;5.53;;;2.67;;
47758;SDS011;33520;55.122;35.582;2023-10-19T03:49:03;4.75;;;2.40;;
47758;SDS011;33520;55.122;35.582;2023-10-19T03:51:39;13.98;;;2.65;;
47758;SDS011;33520;55.122;35.582;2023-10-19T03:54:06;3.92;;;2.30;;
47758;SDS011;33520;55.122;35.582;2023-10-19T03:56:51;6.13;;;2.50;;
47758;SDS011;33520;55.122;35.582;2023-10-19T03:59:18;4.47;;;2.28;;
47758;SDS011;33520;55.122;35.582;2023-10-19T04:01:45;4.28;;;2.20;;
47758;SDS011;33520;55.122;35.582;2023-10-19T04:04:12;3.90;;;2.47;;
47758;SDS011;33520;55.122;35.582;2023-10-19T04:06:42;4.18;;;2.40;;
47758;SDS011;33520;55.122;35.582;2023-10-19T04:09:14;3.58;;;2.00;;
47758;SDS011;33520;55.122;35.582;2023-10-19T04:11:43;3.35;;;2.20;;
47758;SDS011;33520;55.122;35.582;2023-10-19T04:14:15;3.92;;;2.20;;
47758;SDS011;33520;55.122;35.582;2023-10-19T04:16:42;6.88;;;2.80;;
47758;SDS011;33520;55.122;35.582;2023-10-19T04:19:10;4.78;;;2.10;;
47758;SDS011;33520;55.122;35.582;2023-10-19T04:21:37;4.40;;;2.35;;
47758;SDS011;33520;55.122;35.582;2023-10-19T04:24:09;3.63;;;2.28;;
47758;SDS011;33520;55.122;35.582;2023-10-19T04:26:36;4.10;;;2.22;;
47758;SDS011;33520;55.122;35.582;2023-10-19T04:29:03;4.65;;;2.03;;
47758;SDS011;33520;55.122;35.582;2023-10-19T04:31:37;5.43;;;3.10;;
47758;SDS011;33520;55.122;35.582;2023-10-19T04:34:15;3.72;;;2.05;;
47758;SDS011;33520;55.122;35.582;2023-10-19T04:36:46;2.63;;;1.90;;
47758;SDS011;33520;55.122;35.582;2023-10-19T04:39:13;5.50;;;2.20;;
47758;SDS011;33520;55.122;35.582;2023-10-19T04:41:39;3.58;;;2.05;;
47758;SDS011;33520;55.122;35.582;2023-10-19T04:44:06;4.78;;;1.92;;
47758;SDS011;33520;55.122;35.582;2023-10-19T04:46:36;3.60;;;2.15;;
47758;SDS011;33520;55.122;35.582;2023-10-19T04:49:03;3.58;;;2.10;;
47758;SDS011;33520;55.122;35.582;2023-10-19T04:51:29;6.57;;;1.90;;
47758;SDS011;33520;55.122;35.582;2023-10-19T04:53:55;3.08;;;2.10;;
47758;SDS011;33520;55.122;35.582;2023-10-19T04:56:22;3.30;;;2.05;;
47758;SDS011;33520;55.122;35.582;2023-10-19T04:58:48;3.10;;;2.05;;
47758;SDS011;33520;55.122;35.582;2023-10-19T05:01:14;3.10;;;2.00;;
47758;SDS011;33520;55.122;35.582;2023-10-19T05:03:41;3.47;;;2.00;;
47758;SDS011;33520;55.122;35.582;2023-10-19T05:06:07;3.67;;;2.08;;
47758;SDS011;33520;55.122;35.582;2023-10-19T05:08:35;2.30;;;1.65;;
47758;SDS011;33520;55.122;35.582;2023-10-19T05:11:02;3.92;;;2.08;;
47758;SDS011;33520;55.122;35.582;2023-10-19T05:13:30;9.02;;;2.05;;
47758;SDS011;33520;55.122;35.582;2023-10-19T05:15:57;5.13;;;2.10;;
47758;SDS011;33520;55.122;35.582;2023-10-19T05:18:25;3.90;;;1.90;;
47758;SDS011;33520;55.122;35.582;2023-10-19T05:20:51;3.65;;;1.70;;
47758;SDS011;33520;55.122;35.582;2023-10-19T05:23:22;4.93;;;2.20;;
47758;SDS011;33520;55.122;35.582;2023-10-19T05:26:01;3.05;;;1.50;;
47758;SDS011;33520;55.122;35.582;2023-10-19T05:28:29;2.83;;;2.00;;
47758;SDS011;33520;55.122;35.582;2023-10-19T05:30:56;6.80;;;2.63;;
47758;SDS011;33520;55.122;35.582;2023-10-19T05:33:22;2.88;;;1.58;;
47758;SDS011;33520;55.122;35.582;2023-10-19T05:35:49;4.07;;;1.85;;
47758;SDS011;33520;55.122;35.582;2023-10-19T05:38:20;2.65;;;1.67;;
47758;SDS011;33520;55.122;35.582;2023-10-19T05:40:48;2.42;;;1.52;;
47758;SDS011;33520;55.122;35.582;2023-10-19T05:43:15;3.75;;;1.40;;
47758;SDS011;33520;55.122;35.582;2023-10-19T05:45:43;4.60;;;1.73;;
47758;SDS011;33520;55.122;35.582;2023-10-19T05:53:03;2.08;;;1.48;;
47758;SDS011;33520;55.122;35.582;2023-10-19T05:55:30;2.53;;;1.50;;
47758;SDS011;33520;55.122;35.582;2023-10-19T05:57:57;1.60;;;1.20;;
47758;SDS011;33520;55.122;35.582;2023-10-19T06:00:24;4.18;;;1.30;;
47758;SDS011;33520;55.122;35.582;2023-10-19T06:02:54;1.55;;;1.15;;
47758;SDS011;33520;55.122;35.582;2023-10-19T06:05:20;3.13;;;1.00;;
47758;SDS011;33520;55.122;35.582;2023-10-19T06:07:47;2.67;;;1.13;;
47758;SDS011;33520;55.122;35.582;2023-10-19T06:10:15;2.25;;;1.05;;
47758;SDS011;33520;55.122;35.582;2023-10-19T06:12:43;1.77;;;1.10;;
47758;SDS011;33520;55.122;35.582;2023-10-19T06:15:11;2.03;;;0.90;;
47758;SDS011;33520;55.122;35.582;2023-10-19T06:17:39;1.90;;;0.80;;
47758;SDS011;33520;55.122;35.582;2023-10-19T06:20:07;0.95;;;0.80;;
47758;SDS011;33520;55.122;35.582;2023-10-19T06:23:06;2.35;;;0.90;;
47758;SDS011;33520;55.122;35.582;2023-10-19T06:25:33;1.70;;;1.00;;
47758;SDS011;33520;55.122;35.582;2023-10-19T06:28:02;1.77;;;1.08;;
47758;SDS011;33520;55.122;35.582;2023-10-19T06:30:29;2.85;;;1.17;;
47758;SDS011;33520;55.122;35.582;2023-10-19T06:32:57;1.60;;;0.82;;
47758;SDS011;33520;55.122;35.582;2023-10-19T06:35:27;1.00;;;0.70;;
47758;SDS011;33520;55.122;35.582;2023-10-19T06:37:55;0.88;;;0.50;;
47758;SDS011;33520;55.122;35.582;2023-10-19T06:40:21;2.50;;;0.60;;
47758;SDS011;33520;55.122;35.582;2023-10-19T06:42:48;1.35;;;0.70;;
47758;SDS011;33520;55.122;35.582;2023-10-19T06:45:15;2.10;;;1.00;;
47758;SDS011;33520;55.122;35.582;2023-10-19T06:47:45;1.50;;;0.77;;
47758;SDS011;33520;55.122;35.582;2023-10-19T06:50:16;3.88;;;0.80;;
47758;SDS011;33520;55.122;35.582;2023-10-19T06:52:44;1.98;;;0.82;;
47758;SDS011;33520;55.122;35.582;2023-10-19T06:55:12;2.83;;;0.90;;
47758;SDS011;33520;55.122;35.582;2023-10-19T06:57:52;2.25;;;0.80;;
47758;SDS011;33520;55.122;35.582;2023-10-19T07:00:21;0.70;;;0.50;;
47758;SDS011;33520;55.122;35.582;2023-10-19T07:02:51;2.13;;;0.90;;
47758;SDS011;33520;55.122;35.582;2023-10-19T07:05:21;1.17;;;0.60;;
47758;SDS011;33520;55.122;35.582;2023-10-19T07:07:50;1.63;;;1.00;;
47758;SDS011;33520;55.122;35.582;2023-10-19T07:10:22;1.05;;;0.80;;
47758;SDS011;33520;55.122;35.582;2023-10-19T07:12:53;1.92;;;0.60;;
47758;SDS011;33520;55.122;35.582;2023-10-19T07:15:21;1.85;;;0.85;;
47758;SDS011;33520;55.122;35.582;2023-10-19T07:17:51;1.40;;;0.50;;
47758;SDS011;33520;55.122;35.582;2023-10-19T07:20:19;4.95;;;0.77;;
47758;SDS011;33520;55.122;35.582;2023-10-19T07:22:58;1.25;;;0.40;;
47758;SDS011;33520;55.122;35.582;2023-10-19T07:25:29;0.40;;;0.30;;
47758;SDS011;33520;55.122;35.582;2023-10-19T07:27:57;0.60;;;0.30;;
47758;SDS011;33520;55.122;35.582;2023-10-19T07:30:26;1.10;;;0.45;;
47758;SDS011;33520;55.122;35.582;2023-10-19T07:32:52;1.45;;;0.43;;
47758;SDS011;33520;55.122;35.582;2023-10-19T07:35:25;0.52;;;0.40;;
47758;SDS011;33520;55.122;35.582;2023-10-19T07:37:53;0.43;;;0.35;;
47758;SDS011;33520;55.122;35.582;2023-10-19T07:40:19;0.60;;;0.60;;
47758;SDS011;33520;55.122;35.582;2023-10-19T07:42:46;0.57;;;0.35;;
47758;SDS011;33520;55.122;35.582;2023-10-19T07:45:14;0.75;;;0.40;;
47758;SDS011;33520;55.122;35.582;2023-10-19T07:50:07;0.30;;;0.25;;
47758;SDS011;33520;55.122;35.582;2023-10-19T07:52:44;0.87;;;0.50;;
47758;SDS011;33520;55.122;35.582;2023-10-19T07:55:12;2.25;;;0.60;;
47758;SDS011;33520;55.122;35.582;2023-10-19T08:00:06;0.88;;;0.70;;
47758;SDS011;33520;55.122;35.582;2023-10-19T08:02:34;1.52;;;0.80;;
47758;SDS011;33520;55.122;35.582;2023-10-19T08:07:29;2.05;;;1.13;;
47758;SDS011;33520;55.122;35.582;2023-10-19T08:09:56;2.75;;;1.35;;
47758;SDS011;33520;55.122;35.582;2023-10-19T08:12:25;2.40;;;1.13;;
47758;SDS011;33520;55.122;35.582;2023-10-19T08:14:52;2.05;;;1.42;;
47758;SDS011;33520;55.122;35.582;2023-10-19T08:17:21;2.35;;;1.52;;
47758;SDS011;33520;55.122;35.582;2023-10-19T08:19:48;2.30;;;1.45;;
47758;SDS011;33520;55.122;35.582;2023-10-19T08:22:15;3.17;;;1.60;;
47758;SDS011;33520;55.122;35.582;2023-10-19T08:27:12;2.65;;;1.83;;
47758;SDS011;33520;55.122;35.582;2023-10-19T08:29:38;2.50;;;1.65;;
47758;SDS011;33520;55.122;35.582;2023-10-19T08:32:05;1.92;;;1.40;;
47758;SDS011;33520;55.122;35.582;2023-10-19T08:34:35;2.80;;;1.52;;
47758;SDS011;33520;55.122;35.582;2023-10-19T08:37:02;3.20;;;1.50;;
47758;SDS011;33520;55.122;35.582;2023-10-19T08:39:30;2.47;;;1.50;;
47758;SDS011;33520;55.122;35.582;2023-10-19T08:42:04;2.30;;;1.27;;
47758;SDS011;33520;55.122;35.582;2023-10-19T08:44:31;1.63;;;1.15;;
47758;SDS011;33520;55.122;35.582;2023-10-19T08:46:58;2.10;;;1.02;;
47758;SDS011;33520;55.122;35.582;2023-10-19T08:49:28;1.20;;;0.80;;
47758;SDS011;33520;55.122;35.582;2023-10-19T08:51:54;1.58;;;0.98;;
47758;SDS011;33520;55.122;35.582;2023-10-19T08:54:21;1.00;;;0.73;;
47758;SDS011;33520;55.122;35.582;2023-10-19T08:56:48;3.05;;;0.95;;
47758;SDS011;33520;55.122;35.582;2023-10-19T08:59:14;1.38;;;1.00;;
47758;SDS011;33520;55.122;35.582;2023-10-19T09:01:41;3.63;;;0.98;;
47758;SDS011;33520;55.122;35.582;2023-10-19T09:04:12;1.95;;;0.80;;
47758;SDS011;33520;55.122;35.582;2023-10-19T09:06:39;1.75;;;0.75;;
47758;SDS011;33520;55.122;35.582;2023-10-19T09:09:09;0.98;;;0.70;;
47758;SDS011;33520;55.122;35.582;2023-10-19T09:11:46;0.70;;;0.60;;
47758;SDS011;33520;55.122;35.582;2023-10-19T09:14:14;1.27;;;0.70;;
47758;SDS011;33520;55.122;35.582;2023-10-19T09:16:53;2.25;;;0.80;;
47758;SDS011;33520;55.122;35.582;2023-10-19T09:19:42;2.00;;;0.57;;
47758;SDS011;33520;55.122;35.582;2023-10-19T09:22:09;0.50;;;0.50;;
47758;SDS011;33520;55.122;35.582;2023-10-19T09:24:44;1.08;;;0.60;;
47758;SDS011;33520;55.122;35.582;2023-10-19T09:27:21;1.25;;;0.63;;
47758;SDS011;33520;55.122;35.582;2023-10-19T09:29:49;1.60;;;0.70;;
47758;SDS011;33520;55.122;35.582;2023-10-19T09:32:17;1.00;;;0.60;;
47758;SDS011;33520;55.122;35.582;2023-10-19T09:34:45;1.20;;;0.70;;
47758;SDS011;33520;55.122;35.582;2023-10-19T09:37:14;0.65;;;0.50;;
47758;SDS011;33520;55.122;35.582;2023-10-19T09:39:43;0.75;;;0.60;;
47758;SDS011;33520;55.122;35.582;2023-10-19T09:42:10;1.13;;;0.68;;
47758;SDS011;33520;55.122;35.582;2023-10-19T09:44:42;0.68;;;0.57;;
47758;SDS011;33520;55.122;35.582;2023-10-19T09:47:13;0.80;;;0.50;;
47758;SDS011;33520;55.122;35.582;2023-10-19T09:49:42;0.95;;;0.60;;
47758;SDS011;33520;55.122;35.582;2023-10-19T09:52:11;0.68;;;0.60;;
47758;SDS011;33520;55.122;35.582;2023-10-19T10:00:18;2.28;;;0.40;;
47758;SDS011;33520;55.122;35.582;2023-10-19T10:02:49;0.40;;;0.40;;
47758;SDS011;33520;55.122;35.582;2023-10-19T10:05:58;2.00;;;0.50;;
47758;SDS011;33520;55.122;35.582;2023-10-19T10:10:47;0.75;;;0.50;;
47758;SDS011;33520;55.122;35.582;2023-10-19T10:13:35;0.65;;;0.50;;
47758;SDS011;33520;55.122;35.582;2023-10-19T10:16:00;0.68;;;0.57;;
47758;SDS011;33520;55.122;35.582;2023-10-19T10:18:29;2.53;;;0.60;;
47758;SDS011;33520;55.122;35.582;2023-10-19T10:23:40;1.83;;;0.80;;
47758;SDS011;33520;55.122;35.582;2023-10-19T10:26:11;1.35;;;0.65;;
47758;SDS011;33520;55.122;35.582;2023-10-19T10:28:39;1.10;;;0.50;;
47758;SDS011;33520;55.122;35.582;2023-10-19T10:31:07;1.92;;;0.45;;
47758;SDS011;33520;55.122;35.582;2023-10-19T10:33:50;1.40;;;0.73;;
47758;SDS011;33520;55.122;35.582;2023-10-19T10:36:20;3.25;;;1.15;;
47758;SDS011;33520;55.122;35.582;2023-10-19T10:38:47;0.98;;;0.57;;
47758;SDS011;33520;55.122;35.582;2023-10-19T10:43:55;2.97;;;0.52;;
47758;SDS011;33520;55.122;35.582;2023-10-19T10:46:22;0.47;;;0.40;;
47758;SDS011;33520;55.122;35.582;2023-10-19T10:48:49;0.98;;;0.50;;
47758;SDS011;33520;55.122;35.582;2023-10-19T10:51:21;1.58;;;0.55;;
47758;SDS011;33520;55.122;35.582;2023-10-19T10:53:49;0.85;;;0.60;;
47758;SDS011;33520;55.122;35.582;2023-10-19T10:56:20;1.17;;;0.52;;
47758;SDS011;33520;55.122;35.582;2023-10-19T10:58:50;1.08;;;0.60;;
47758;SDS011;33520;55.122;35.582;2023-10-19T11:01:49;1.35;;;0.70;;
47758;SDS011;33520;55.122;35.582;2023-10-19T11:04:09;1.70;;;0.50;;
47758;SDS011;33520;55.122;35.582;2023-10-19T11:06:49;0.55;;;0.50;;
47758;SDS011;33520;55.122;35.582;2023-10-19T11:09:16;0.55;;;0.40;;
47758;SDS011;33520;55.122;35.582;2023-10-19T11:11:47;1.95;;;0.50;;
47758;SDS011;33520;55.122;35.582;2023-10-19T11:14:15;1.00;;;0.35;;
47758;SDS011;33520;55.122;35.582;2023-10-19T11:16:41;2.28;;;1.00;;
47758;SDS011;33520;55.122;35.582;2023-10-19T11:19:08;0.30;;;0.30;;
47758;SDS011;33520;55.122;35.582;2023-10-19T11:21:38;3.30;;;0.30;;
47758;SDS011;33520;55.122;35.582;2023-10-19T11:24:26;1.85;;;0.40;;
47758;SDS011;33520;55.122;35.582;2023-10-19T11:26:55;1.83;;;0.30;;
47758;SDS011;33520;55.122;35.582;2023-10-19T11:29:21;1.85;;;0.30;;
47758;SDS011;33520;55.122;35.582;2023-10-19T11:31:58;0.20;;;0.20;;
47758;SDS011;33520;55.122;35.582;2023-10-19T11:34:25;1.02;;;0.35;;
47758;SDS011;33520;55.122;35.582;2023-10-19T11:36:53;1.80;;;0.30;;
47758;SDS011;33520;55.122;35.582;2023-10-19T11:39:22;1.10;;;0.65;;
47758;SDS011;33520;55.122;35.582;2023-10-19T11:41:52;0.63;;;0.20;;
47758;SDS011;33520;55.122;35.582;2023-10-19T11:44:18;1.00;;;0.50;;
47758;SDS011;33520;55.122;35.582;2023-10-19T11:46:45;2.15;;;0.47;;
47758;SDS011;33520;55.122;35.582;2023-10-19T11:49:12;0.32;;;0.32;;
47758;SDS011;33520;55.122;35.582;2023-10-19T11:51:38;0.35;;;0.30;;
47758;SDS011;33520;55.122;35.582;2023-10-19T11:54:04;0.35;;;0.30;;
47758;SDS011;33520;55.122;35.582;2023-10-19T11:56:34;0.88;;;0.30;;
47758;SDS011;33520;55.122;35.582;2023-10-19T11:59:00;0.30;;;0.20;;
47758;SDS011;33520;55.122;35.582;2023-10-19T12:01:27;0.70;;;0.35;;
47758;SDS011;33520;55.122;35.582;2023-10-19T12:03:55;0.60;;;0.35;;
47758;SDS011;33520;55.122;35.582;2023-10-19T12:06:21;0.30;;;0.30;;
47758;SDS011;33520;55.122;35.582;2023-10-19T12:08:49;0.88;;;0.40;;
47758;SDS011;33520;55.122;35.582;2023-10-19T12:11:15;0.22;;;0.22;;
47758;SDS011;33520;55.122;35.582;2023-10-19T12:13:45;0.20;;;0.20;;
47758;SDS011;33520;55.122;35.582;2023-10-19T12:16:12;0.65;;;0.22;;
47758;SDS011;33520;55.122;35.582;2023-10-19T12:18:41;0.55;;;0.30;;
47758;SDS011;33520;55.122;35.582;2023-10-19T12:21:09;0.73;;;0.30;;
47758;SDS011;33520;55.122;35.582;2023-10-19T12:23:39;0.20;;;0.20;;
47758;SDS011;33520;55.122;35.582;2023-10-19T12:26:06;0.20;;;0.20;;
47758;SDS011;33520;55.122;35.582;2023-10-19T12:28:40;0.20;;;0.20;;
47758;SDS011;33520;55.122;35.582;2023-10-19T12:31:07;0.20;;;0.20;;
47758;SDS011;33520;55.122;35.582;2023-10-19T12:33:35;0.20;;;0.20;;
47758;SDS011;33520;55.122;35.582;2023-10-19T12:36:02;0.20;;;0.20;;
47758;SDS011;33520;55.122;35.582;2023-10-19T12:38:47;0.55;;;0.20;;
47758;SDS011;33520;55.122;35.582;2023-10-19T12:41:14;0.43;;;0.30;;
47758;SDS011;33520;55.122;35.582;2023-10-19T12:46:07;0.22;;;0.20;;
47758;SDS011;33520;55.122;35.582;2023-10-19T12:48:38;0.65;;;0.15;;
47758;SDS011;33520;55.122;35.582;2023-10-19T12:51:05;0.20;;;0.20;;
47758;SDS011;33520;55.122;35.582;2023-10-19T12:53:37;0.10;;;0.10;;
47758;SDS011;33520;55.122;35.582;2023-10-19T12:56:06;0.20;;;0.20;;
47758;SDS011;33520;55.122;35.582;2023-10-19T12:58:37;0.10;;;0.10;;
47758;SDS011;33520;55.122;35.582;2023-10-19T13:01:03;0.15;;;0.10;;
47758;SDS011;33520;55.122;35.582;2023-10-19T13:03:31;0.50;;;0.20;;
47758;SDS011;33520;55.122;35.582;2023-10-19T13:05:58;1.17;;;0.20;;
47758;SDS011;33520;55.122;35.582;2023-10-19T13:08:24;0.68;;;0.20;;
47758;SDS011;33520;55.122;35.582;2023-10-19T13:10:54;0.15;;;0.15;;
47758;SDS011;33520;55.122;35.582;2023-10-19T13:13:21;1.40;;;0.30;;
47758;SDS011;33520;55.122;35.582;2023-10-19T13:15:49;0.20;;;0.17;;
47758;SDS011;33520;55.122;35.582;2023-10-19T13:18:18;0.22;;;0.10;;
47758;SDS011;33520;55.122;35.582;2023-10-19T13:20:53;0.63;;;0.20;;
47758;SDS011;33520;55.122;35.582;2023-10-19T13:23:19;0.10;;;0.10;;
47758;SDS011;33520;55.122;35.582;2023-10-19T13:25:49;0.40;;;0.20;;
47758;SDS011;33520;55.122;35.582;2023-10-19T13:28:17;0.68;;;0.20;;
47758;SDS011;33520;55.122;35.582;2023-10-19T13:30:46;0.17;;;0.10;;
47758;SDS011;33520;55.122;35.582;2023-10-19T13:33:13;0.15;;;0.15;;
47758;SDS011;33520;55.122;35.582;2023-10-19T13:35:41;1.40;;;0.20;;
47758;SDS011;33520;55.122;35.582;2023-10-19T13:38:08;1.17;;;0.20;;
47758;SDS011;33520;55.122;35.582;2023-10-19T13:40:35;0.20;;;0.20;;
47758;SDS011;33520;55.122;35.582;2023-10-19T13:43:02;1.25;;;0.10;;
47758;SDS011;33520;55.122;35.582;2023-10-19T13:45:50;0.32;;;0.25;;
47758;SDS011;33520;55.122;35.582;2023-10-19T13:48:19;0.25;;;0.10;;
47758;SDS011;33520;55.122;35.582;2023-10-19T13:50:47;0.45;;;0.20;;
47758;SDS011;33520;55.122;35.582;2023-10-19T13:53:15;0.93;;;0.15;;
47758;SDS011;33520;55.122;35.582;2023-10-19T13:55:42;0.20;;;0.20;;
47758;SDS011;33520;55.122;35.582;2023-10-19T13:58:09;2.63;;;0.20;;
47758;SDS011;33520;55.122;35.582;2023-10-19T14:00:37;0.45;;;0.20;;
47758;SDS011;33520;55.122;35.582;2023-10-19T14:03:06;2.15;;;0.40;;
47758;SDS011;33520;55.122;35.582;2023-10-19T14:05:36;0.98;;;0.30;;
47758;SDS011;33520;55.122;35.582;2023-10-19T14:08:04;0.82;;;0.30;;
47758;SDS011;33520;55.122;35.582;2023-10-19T14:10:30;0.30;;;0.30;;
47758;SDS011;33520;55.122;35.582;2023-10-19T14:15:23;1.45;;;0.22;;
47758;SDS011;33520;55.122;35.582;2023-10-19T14:17:49;2.05;;;1.05;;
47758;SDS011;33520;55.122;35.582;2023-10-19T14:20:16;3.10;;;0.35;;
47758;SDS011;33520;55.122;35.582;2023-10-19T14:22:43;0.10;;;0.10;;
47758;SDS011;33520;55.122;35.582;2023-10-19T14:25:11;1.85;;;0.22;;
47758;SDS011;33520;55.122;35.582;2023-10-19T14:27:39;0.38;;;0.30;;
47758;SDS011;33520;55.122;35.582;2023-10-19T14:30:08;0.30;;;0.20;;
47758;SDS011;33520;55.122;35.582;2023-10-19T14:32:38;0.45;;;0.32;;
47758;SDS011;33520;55.122;35.582;2023-10-19T14:35:10;0.63;;;0.10;;
47758;SDS011;33520;55.122;35.582;2023-10-19T14:37:38;0.70;;;0.20;;
47758;SDS011;33520;55.122;35.582;2023-10-19T14:40:06;0.17;;;0.17;;
47758;SDS011;33520;55.122;35.582;2023-10-19T14:42:43;4.18;;;0.30;;
47758;SDS011;33520;55.122;35.582;2023-10-19T14:45:10;0.68;;;0.30;;
47758;SDS011;33520;55.122;35.582;2023-10-19T14:47:42;0.20;;;0.20;;
47758;SDS011;33520;55.122;35.582;2023-10-19T14:50:17;0.15;;;0.15;;
47758;SDS011;33520;55.122;35.582;2023-10-19T14:52:45;0.20;;;0.15;;
47758;SDS011;33520;55.122;35.582;2023-10-19T14:55:13;0.25;;;0.25;;
47758;SDS011;33520;55.122;35.582;2023-10-19T14:57:41;0.30;;;0.20;;
47758;SDS011;33520;55.122;35.582;2023-10-19T15:00:09;0.30;;;0.20;;
47758;SDS011;33520;55.122;35.582;2023-10-19T15:02:44;0.98;;;0.30;;
47758;SDS011;33520;55.122;35.582;2023-10-19T15:05:11;0.73;;;0.25;;
47758;SDS011;33520;55.122;35.582;2023-10-19T15:07:46;1.75;;;0.38;;
47758;SDS011;33520;55.122;35.582;2023-10-19T15:10:24;0.40;;;0.38;;
47758;SDS011;33520;55.122;35.582;2023-10-19T15:12:52;0.95;;;0.40;;
47758;SDS011;33520;55.122;35.582;2023-10-19T15:15:19;1.05;;;0.43;;
47758;SDS011;33520;55.122;35.582;2023-10-19T15:17:46;1.13;;;0.30;;
47758;SDS011;33520;55.122;35.582;2023-10-19T15:20:14;2.55;;;0.60;;
47758;SDS011;33520;55.122;35.582;2023-10-19T15:22:41;1.17;;;0.20;;
47758;SDS011;33520;55.122;35.582;2023-10-19T15:25:09;0.50;;;0.40;;
47758;SDS011;33520;55.122;35.582;2023-10-19T15:27:38;0.40;;;0.32;;
47758;SDS011;33520;55.122;35.582;2023-10-19T15:30:05;1.17;;;0.30;;